Time,TemperatureF,DewpointF,PressureIn,WindDirection,WindDirectionDegrees,WindSpeedMPH,WindSpeedGustMPH,Humidity,HourlyPrecipIn,Conditions,Clouds,dailyrainin,SoftwareType,DateUTC
2013-01-27 00:00:00,23.0,23.0,-100.00,South,180,24.0,33.0,98,-99.99,,,-99.99,,2013-01-27 07:00:00,
2013-01-27 00:42:00,23.0,23.0,-100.00,South,180,24.0,33.0,98,-99.99,,,-99.99,,2013-01-27 07:42:00,
2013-01-27 00:52:00,23.0,23.0,-100.00,South,180,24.0,33.0,98,-99.99,,,-99.99,,2013-01-27 07:52:00,
2013-01-27 01:00:00,23.0,22.0,-100.00,South,175,19.0,29.0,98,-99.99,,,-99.99,,2013-01-27 08:00:00,
2013-01-27 01:42:00,23.0,22.0,-100.00,South,175,19.0,29.0,98,-99.99,,,-99.99,,2013-01-27 08:42:00,
2013-01-27 01:52:00,23.0,22.0,-100.00,South,175,19.0,29.0,98,-99.99,,,-99.99,,2013-01-27 08:52:00,
2013-01-27 02:00:00,22.0,22.0,-100.00,South,178,24.0,33.0,98,-99.99,,,-99.99,,2013-01-27 09:00:00,
2013-01-27 02:42:00,22.0,22.0,-100.00,South,178,24.0,33.0,98,-99.99,,,-99.99,,2013-01-27 09:42:00,
2013-01-27 02:52:00,22.0,22.0,-100.00,South,178,24.0,33.0,98,-99.99,,,-99.99,,2013-01-27 09:52:00,
2013-01-27 03:00:00,22.0,21.0,-100.00,South,178,20.0,31.0,98,-99.99,,,-99.99,,2013-01-27 10:00:00,
2013-01-27 03:42:00,22.0,21.0,-100.00,South,178,20.0,31.0,98,-99.99,,,-99.99,,2013-01-27 10:42:00,
2013-01-27 03:52:00,22.0,21.0,-100.00,South,178,20.0,31.0,98,-99.99,,,-99.99,,2013-01-27 10:52:00,
2013-01-27 04:00:00,22.0,21.0,-100.00,South,178,21.0,30.0,98,-99.99,,,-99.99,,2013-01-27 11:00:00,
2013-01-27 04:42:00,22.0,21.0,-100.00,South,178,21.0,30.0,98,-99.99,,,-99.99,,2013-01-27 11:42:00,
2013-01-27 04:52:00,22.0,21.0,-100.00,South,178,21.0,30.0,98,-99.99,,,-99.99,,2013-01-27 11:52:00,
2013-01-27 05:00:00,22.0,21.0,-100.00,South,179,22.0,29.0,97,-99.99,,,-99.99,,2013-01-27 12:00:00,
2013-01-27 05:42:00,22.0,21.0,-100.00,South,179,22.0,29.0,97,-99.99,,,-99.99,,2013-01-27 12:42:00,
2013-01-27 05:52:00,22.0,21.0,-100.00,South,179,22.0,29.0,97,-99.99,,,-99.99,,2013-01-27 12:52:00,
2013-01-27 06:00:00,22.0,21.0,-100.00,South,181,22.0,30.0,96,-99.99,,,-99.99,,2013-01-27 13:00:00,
2013-01-27 06:42:00,22.0,21.0,-100.00,South,181,22.0,30.0,96,-99.99,,,-99.99,,2013-01-27 13:42:00,
2013-01-27 06:52:00,22.0,21.0,-100.00,South,181,22.0,30.0,96,-99.99,,,-99.99,,2013-01-27 13:52:00,
2013-01-27 07:00:00,21.0,20.0,-100.00,South,177,20.0,29.0,95,-99.99,,,-99.99,,2013-01-27 14:00:00,
2013-01-27 07:43:00,21.0,20.0,-100.00,South,177,20.0,29.0,95,-99.99,,,-99.99,,2013-01-27 14:43:00,
2013-01-27 07:52:00,21.0,20.0,-100.00,South,177,20.0,29.0,95,-99.99,,,-99.99,,2013-01-27 14:52:00,
2013-01-27 08:00:00,21.0,19.0,-100.00,South,175,15.0,26.0,92,-99.99,,,-99.99,,2013-01-27 15:00:00,
2013-01-27 08:42:00,21.0,19.0,-100.00,South,175,15.0,26.0,92,-99.99,,,-99.99,,2013-01-27 15:42:00,
2013-01-27 08:52:00,21.0,19.0,-100.00,South,175,15.0,26.0,92,-99.99,,,-99.99,,2013-01-27 15:52:00,
2013-01-27 09:00:00,21.0,19.0,-100.00,SSE,167,14.0,28.0,89,-99.99,,,-99.99,,2013-01-27 16:00:00,
2013-01-27 09:42:00,21.0,19.0,-100.00,SSE,167,14.0,28.0,89,-99.99,,,-99.99,,2013-01-27 16:42:00,
2013-01-27 09:53:00,21.0,19.0,-100.00,SSE,167,14.0,28.0,89,-99.99,,,-99.99,,2013-01-27 16:53:00,
2013-01-27 10:00:00,22.0,18.0,-100.00,South,171,17.0,28.0,83,-99.99,,,-99.99,,2013-01-27 17:00:00,
2013-01-27 10:42:00,22.0,18.0,-100.00,South,171,17.0,28.0,83,-99.99,,,-99.99,,2013-01-27 17:42:00,
2013-01-27 10:52:00,22.0,18.0,-100.00,South,171,17.0,28.0,83,-99.99,,,-99.99,,2013-01-27 17:52:00,
2013-01-27 11:00:00,23.0,18.0,-100.00,South,180,17.0,31.0,80,-99.99,,,-99.99,,2013-01-27 18:00:00,
2013-01-27 11:42:00,23.0,18.0,-100.00,South,180,17.0,31.0,80,-99.99,,,-99.99,,2013-01-27 18:42:00,
2013-01-27 11:52:00,23.0,18.0,-100.00,South,180,17.0,31.0,80,-99.99,,,-99.99,,2013-01-27 18:52:00,
2013-01-27 12:00:00,22.0,19.0,-100.00,South,180,21.0,32.0,85,-99.99,,,-99.99,,2013-01-27 19:00:00,
2013-01-27 12:42:00,22.0,19.0,-100.00,South,180,21.0,32.0,85,-99.99,,,-99.99,,2013-01-27 19:42:00,
2013-01-27 12:52:00,22.0,19.0,-100.00,South,180,21.0,32.0,85,-99.99,,,-99.99,,2013-01-27 19:52:00,
2013-01-27 13:00:00,23.0,19.0,-100.00,South,180,25.0,37.0,87,-99.99,,,-99.99,,2013-01-27 20:00:00,
2013-01-27 13:42:00,23.0,19.0,-100.00,South,180,25.0,37.0,87,-99.99,,,-99.99,,2013-01-27 20:42:00,
2013-01-27 13:52:00,23.0,19.0,-100.00,South,180,25.0,37.0,87,-99.99,,,-99.99,,2013-01-27 20:52:00,
2013-01-27 14:00:00,23.0,17.0,-100.00,South,183,27.0,37.0,75,-99.99,,,-99.99,,2013-01-27 21:00:00,
2013-01-27 14:43:00,23.0,17.0,-100.00,South,183,27.0,37.0,75,-99.99,,,-99.99,,2013-01-27 21:43:00,
2013-01-27 14:52:00,23.0,17.0,-100.00,South,183,27.0,37.0,75,-99.99,,,-99.99,,2013-01-27 21:52:00,
2013-01-27 15:00:00,23.0,13.0,-100.00,South,182,31.0,43.0,64,-99.99,,,-99.99,,2013-01-27 22:00:00,
2013-01-27 15:42:00,23.0,13.0,-100.00,South,182,31.0,43.0,64,-99.99,,,-99.99,,2013-01-27 22:42:00,
2013-01-27 15:52:00,23.0,13.0,-100.00,South,182,31.0,43.0,64,-99.99,,,-99.99,,2013-01-27 22:52:00,
2013-01-27 16:00:00,22.0,12.0,-100.00,South,181,31.0,43.0,63,-99.99,,,-99.99,,2013-01-27 23:00:00,
2013-01-27 16:42:00,22.0,12.0,-100.00,South,181,31.0,43.0,63,-99.99,,,-99.99,,2013-01-27 23:42:00,
2013-01-27 16:53:00,22.0,12.0,-100.00,South,181,31.0,43.0,63,-99.99,,,-99.99,,2013-01-27 23:53:00,
2013-01-27 17:00:00,20.0,12.0,-100.00,South,181,35.0,45.0,72,-99.99,,,-99.99,,2013-01-28 00:00:00,
2013-01-27 17:42:00,20.0,12.0,-100.00,South,181,35.0,45.0,72,-99.99,,,-99.99,,2013-01-28 00:42:00,
2013-01-27 17:52:00,20.0,12.0,-100.00,South,181,35.0,45.0,72,-99.99,,,-99.99,,2013-01-28 00:52:00,
2013-01-27 18:00:00,20.0,11.0,-100.00,South,178,34.0,47.0,69,-99.99,,,-99.99,,2013-01-28 01:00:00,
2013-01-27 18:42:00,20.0,11.0,-100.00,South,178,34.0,47.0,69,-99.99,,,-99.99,,2013-01-28 01:42:00,
2013-01-27 18:52:00,20.0,11.0,-100.00,South,178,34.0,47.0,69,-99.99,,,-99.99,,2013-01-28 01:52:00,
2013-01-27 19:00:00,19.0,11.0,-100.00,South,171,26.0,41.0,70,-99.99,,,-99.99,,2013-01-28 02:00:00,
2013-01-27 19:42:00,19.0,11.0,-100.00,South,171,26.0,41.0,70,-99.99,,,-99.99,,2013-01-28 02:42:00,
2013-01-27 19:52:00,19.0,11.0,-100.00,South,171,26.0,41.0,70,-99.99,,,-99.99,,2013-01-28 02:52:00,
2013-01-27 20:00:00,18.0,15.0,-100.00,South,170,22.0,30.0,86,-99.99,,,-99.99,,2013-01-28 03:00:00,
2013-01-27 20:42:00,18.0,15.0,-100.00,South,170,22.0,30.0,86,-99.99,,,-99.99,,2013-01-28 03:42:00,
2013-01-27 20:53:00,18.0,15.0,-100.00,South,170,22.0,30.0,86,-99.99,,,-99.99,,2013-01-28 03:53:00,
2013-01-27 21:00:00,18.0,14.0,-100.00,South,169,25.0,39.0,83,-99.99,,,-99.99,,2013-01-28 04:00:00,
2013-01-27 21:42:00,18.0,14.0,-100.00,South,169,25.0,39.0,83,-99.99,,,-99.99,,2013-01-28 04:42:00,
2013-01-27 21:52:00,18.0,14.0,-100.00,South,169,25.0,39.0,83,-99.99,,,-99.99,,2013-01-28 04:52:00,
2013-01-27 22:00:00,18.0,16.0,-100.00,South,173,20.0,31.0,93,-99.99,,,-99.99,,2013-01-28 05:00:00,
2013-01-27 22:42:00,18.0,16.0,-100.00,South,173,20.0,31.0,93,-99.99,,,-99.99,,2013-01-28 05:42:00,
2013-01-27 22:52:00,18.0,16.0,-100.00,South,173,20.0,31.0,93,-99.99,,,-99.99,,2013-01-28 05:52:00,
2013-01-27 23:00:00,19.0,18.0,-100.00,South,171,21.0,43.0,95,-99.99,,,-99.99,,2013-01-28 06:00:00,
2013-01-27 23:42:00,19.0,18.0,-100.00,South,171,21.0,43.0,95,-99.99,,,-99.99,,2013-01-28 06:42:00,
2013-01-27 23:52:00,19.0,18.0,-100.00,South,171,21.0,43.0,95,-99.99,,,-99.99,,2013-01-28 06:52:00,